sensor_id;sensor_type;location;lat;lon;timestamp;temperature;humidity
935;DHT22;454;53.254;10.400;2023-10-31T05:02:26;12.30;99.90
935;DHT22;454;53.254;10.400;2023-10-31T05:04:54;12.30;99.90
935;DHT22;454;53.254;10.400;2023-10-31T05:07:20;12.30;99.90
935;DHT22;454;53.254;10.400;2023-10-31T05:09:47;12.30;99.90
935;DHT22;454;53.254;10.400;2023-10-31T05:12:14;12.40;99.90
935;DHT22;454;53.254;10.400;2023-10-31T05:14:41;12.40;99.90
935;DHT22;454;53.254;10.400;2023-10-31T05:17:07;12.40;99.90
935;DHT22;454;53.254;10.400;2023-10-31T05:19:35;12.40;99.90
935;DHT22;454;53.254;10.400;2023-10-31T05:22:02;12.40;99.90
935;DHT22;454;53.254;10.400;2023-10-31T05:24:29;12.40;99.90
935;DHT22;454;53.254;10.400;2023-10-31T05:26:57;12.40;99.90
935;DHT22;454;53.254;10.400;2023-10-31T05:29:24;12.40;99.90
935;DHT22;454;53.254;10.400;2023-10-31T05:31:51;12.40;99.90
935;DHT22;454;53.254;10.400;2023-10-31T05:34:17;12.40;99.90
935;DHT22;454;53.254;10.400;2023-10-31T05:36:45;12.40;99.90
935;DHT22;454;53.254;10.400;2023-10-31T05:39:12;12.40;99.90
935;DHT22;454;53.254;10.400;2023-10-31T05:41:39;12.40;99.90
935;DHT22;454;53.254;10.400;2023-10-31T05:44:06;12.40;99.90
935;DHT22;454;53.254;10.400;2023-10-31T05:46:37;12.40;99.90
935;DHT22;454;53.254;10.400;2023-10-31T05:49:06;12.40;99.90
935;DHT22;454;53.254;10.400;2023-10-31T05:51:33;12.40;99.90
935;DHT22;454;53.254;10.400;2023-10-31T05:54:02;12.40;99.90
935;DHT22;454;53.254;10.400;2023-10-31T05:56:29;12.40;99.90
935;DHT22;454;53.254;10.400;2023-10-31T05:58:55;12.40;99.90
935;DHT22;454;53.254;10.400;2023-10-31T06:01:22;12.40;99.90
935;DHT22;454;53.254;10.400;2023-10-31T06:03:49;12.40;99.90
935;DHT22;454;53.254;10.400;2023-10-31T06:06:15;12.50;99.90
935;DHT22;454;53.254;10.400;2023-10-31T06:08:42;12.50;99.90
935;DHT22;454;53.254;10.400;2023-10-31T06:11:10;12.40;99.90
935;DHT22;454;53.254;10.400;2023-10-31T06:13:38;12.40;99.90
935;DHT22;454;53.254;10.400;2023-10-31T06:16:05;12.40;99.90
935;DHT22;454;53.254;10.400;2023-10-31T06:18:32;12.40;99.90
935;DHT22;454;53.254;10.400;2023-10-31T06:21:00;12.40;99.90
935;DHT22;454;53.254;10.400;2023-10-31T06:23:27;12.30;99.90
935;DHT22;454;53.254;10.400;2023-10-31T06:25:53;12.30;99.90
935;DHT22;454;53.254;10.400;2023-10-31T06:28:23;12.20;99.90
935;DHT22;454;53.254;10.400;2023-10-31T06:30:50;12.20;99.90
935;DHT22;454;53.254;10.400;2023-10-31T06:33:16;12.10;99.90
935;DHT22;454;53.254;10.400;2023-10-31T06:35:43;12.10;99.90
935;DHT22;454;53.254;10.400;2023-10-31T06:38:10;12.00;99.90
935;DHT22;454;53.254;10.400;2023-10-31T06:40:36;12.00;99.90
935;DHT22;454;53.254;10.400;2023-10-31T06:43:03;12.00;99.90
935;DHT22;454;53.254;10.400;2023-10-31T06:45:31;12.00;99.90
935;DHT22;454;53.254;10.400;2023-10-31T06:47:58;11.90;99.90
935;DHT22;454;53.254;10.400;2023-10-31T06:50:24;12.00;99.90
935;DHT22;454;53.254;10.400;2023-10-31T06:52:51;11.90;99.90
935;DHT22;454;53.254;10.400;2023-10-31T06:55:18;11.90;99.90
935;DHT22;454;53.254;10.400;2023-10-31T06:57:44;11.80;99.90
935;DHT22;454;53.254;10.400;2023-10-31T07:00:12;11.80;99.90
935;DHT22;454;53.254;10.400;2023-10-31T07:02:41;11.70;99.90
935;DHT22;454;53.254;10.400;2023-10-31T07:05:08;11.70;99.90
935;DHT22;454;53.254;10.400;2023-10-31T07:07:34;11.60;99.90
935;DHT22;454;53.254;10.400;2023-10-31T07:10:01;11.60;99.90
935;DHT22;454;53.254;10.400;2023-10-31T07:12:28;11.50;99.90
935;DHT22;454;53.254;10.400;2023-10-31T07:14:54;11.50;99.90
935;DHT22;454;53.254;10.400;2023-10-31T07:17:23;11.50;99.90
935;DHT22;454;53.254;10.400;2023-10-31T07:19:52;11.50;99.90
935;DHT22;454;53.254;10.400;2023-10-31T07:22:18;11.40;99.90
935;DHT22;454;53.254;10.400;2023-10-31T07:24:45;11.40;99.90
935;DHT22;454;53.254;10.400;2023-10-31T07:27:12;11.40;99.90
935;DHT22;454;53.254;10.400;2023-10-31T07:29:39;11.40;99.90
935;DHT22;454;53.254;10.400;2023-10-31T07:32:07;11.40;99.90
935;DHT22;454;53.254;10.400;2023-10-31T07:34:33;11.40;99.90
935;DHT22;454;53.254;10.400;2023-10-31T07:37:02;11.30;99.90
935;DHT22;454;53.254;10.400;2023-10-31T07:39:29;11.40;99.90
935;DHT22;454;53.254;10.400;2023-10-31T07:41:55;11.40;99.90
935;DHT22;454;53.254;10.400;2023-10-31T07:44:22;11.40;99.90
935;DHT22;454;53.254;10.400;2023-10-31T07:46:49;11.40;99.90
935;DHT22;454;53.254;10.400;2023-10-31T07:49:16;11.40;99.90
935;DHT22;454;53.254;10.400;2023-10-31T07:51:42;11.40;99.90
935;DHT22;454;53.254;10.400;2023-10-31T07:54:12;11.40;99.90
935;DHT22;454;53.254;10.400;2023-10-31T07:56:39;11.40;99.90
935;DHT22;454;53.254;10.400;2023-10-31T07:59:06;11.40;99.90
935;DHT22;454;53.254;10.400;2023-10-31T08:01:33;11.40;99.90
935;DHT22;454;53.254;10.400;2023-10-31T08:04:00;11.40;99.90
935;DHT22;454;53.254;10.400;2023-10-31T08:06:27;11.40;99.90
935;DHT22;454;53.254;10.400;2023-10-31T08:08:54;11.40;99.90
935;DHT22;454;53.254;10.400;2023-10-31T08:11:22;11.40;99.90
935;DHT22;454;53.254;10.400;2023-10-31T08:13:49;11.40;99.90
935;DHT22;454;53.254;10.400;2023-10-31T08:16:17;11.40;99.90
935;DHT22;454;53.254;10.400;2023-10-31T08:18:44;11.30;99.90
935;DHT22;454;53.254;10.400;2023-10-31T08:21:12;11.40;99.90
935;DHT22;454;53.254;10.400;2023-10-31T08:23:39;11.30;99.90
935;DHT22;454;53.254;10.400;2023-10-31T08:26:08;11.30;99.90
935;DHT22;454;53.254;10.400;2023-10-31T08:28:36;11.40;99.90
935;DHT22;454;53.254;10.400;2023-10-31T08:31:03;11.40;99.90
935;DHT22;454;53.254;10.400;2023-10-31T08:33:30;11.40;99.90
935;DHT22;454;53.254;10.400;2023-10-31T08:35:57;11.40;99.90
935;DHT22;454;53.254;10.400;2023-10-31T08:38:23;11.40;99.90
935;DHT22;454;53.254;10.400;2023-10-31T08:40:50;11.30;99.90
935;DHT22;454;53.254;10.400;2023-10-31T08:43:17;11.30;99.90
935;DHT22;454;53.254;10.400;2023-10-31T08:45:45;11.40;99.90
935;DHT22;454;53.254;10.400;2023-10-31T08:48:11;11.30;99.90
935;DHT22;454;53.254;10.400;2023-10-31T08:50:38;11.30;99.90
935;DHT22;454;53.254;10.400;2023-10-31T08:53:05;11.30;99.90
935;DHT22;454;53.254;10.400;2023-10-31T08:55:32;11.30;99.90
935;DHT22;454;53.254;10.400;2023-10-31T08:57:58;11.30;99.90
935;DHT22;454;53.254;10.400;2023-10-31T09:00:25;11.30;99.90
935;DHT22;454;53.254;10.400;2023-10-31T09:02:55;11.30;99.90
935;DHT22;454;53.254;10.400;2023-10-31T09:05:21;11.30;99.90
935;DHT22;454;53.254;10.400;2023-10-31T09:07:48;11.20;99.90
935;DHT22;454;53.254;10.400;2023-10-31T09:10:15;11.20;99.90
935;DHT22;454;53.254;10.400;2023-10-31T09:12:41;11.20;99.90
935;DHT22;454;53.254;10.400;2023-10-31T09:15:09;11.20;99.90
935;DHT22;454;53.254;10.400;2023-10-31T09:17:35;11.20;99.90
935;DHT22;454;53.254;10.400;2023-10-31T09:20:05;11.20;99.90
935;DHT22;454;53.254;10.400;2023-10-31T09:22:32;11.20;99.90
935;DHT22;454;53.254;10.400;2023-10-31T09:24:59;11.20;99.90
935;DHT22;454;53.254;10.400;2023-10-31T09:27:25;11.20;99.90
935;DHT22;454;53.254;10.400;2023-10-31T09:29:52;11.20;99.90
935;DHT22;454;53.254;10.400;2023-10-31T09:32:19;11.20;99.90
935;DHT22;454;53.254;10.400;2023-10-31T09:34:45;11.20;99.90
935;DHT22;454;53.254;10.400;2023-10-31T09:37:13;11.30;99.90
935;DHT22;454;53.254;10.400;2023-10-31T09:39:40;11.30;99.90
935;DHT22;454;53.254;10.400;2023-10-31T09:42:07;11.30;99.90
935;DHT22;454;53.254;10.400;2023-10-31T09:44:35;11.40;99.90
935;DHT22;454;53.254;10.400;2023-10-31T09:47:02;11.40;99.90
935;DHT22;454;53.254;10.400;2023-10-31T09:49:29;11.50;99.90
935;DHT22;454;53.254;10.400;2023-10-31T09:51:56;11.50;99.90
935;DHT22;454;53.254;10.400;2023-10-31T09:54:26;11.50;99.90
935;DHT22;454;53.254;10.400;2023-10-31T09:56:53;11.60;99.90
935;DHT22;454;53.254;10.400;2023-10-31T09:59:19;11.60;99.90
935;DHT22;454;53.254;10.400;2023-10-31T10:01:46;11.60;99.90
935;DHT22;454;53.254;10.400;2023-10-31T10:04:13;11.50;99.90
935;DHT22;454;53.254;10.400;2023-10-31T10:06:50;11.50;99.90
935;DHT22;454;53.254;10.400;2023-10-31T10:09:17;11.50;99.90
935;DHT22;454;53.254;10.400;2023-10-31T10:11:45;11.60;99.90
935;DHT22;454;53.254;10.400;2023-10-31T10:14:12;11.60;99.90
935;DHT22;454;53.254;10.400;2023-10-31T10:16:39;11.60;99.90
935;DHT22;454;53.254;10.400;2023-10-31T10:19:16;11.60;99.90
935;DHT22;454;53.254;10.400;2023-10-31T10:21:48;11.60;99.90
935;DHT22;454;53.254;10.400;2023-10-31T10:24:16;11.70;99.90
935;DHT22;454;53.254;10.400;2023-10-31T10:26:43;11.70;99.90
935;DHT22;454;53.254;10.400;2023-10-31T10:29:11;11.80;99.90
935;DHT22;454;53.254;10.400;2023-10-31T10:31:37;11.80;99.90
935;DHT22;454;53.254;10.400;2023-10-31T10:34:04;11.80;99.90
935;DHT22;454;53.254;10.400;2023-10-31T10:36:33;11.80;99.90
935;DHT22;454;53.254;10.400;2023-10-31T10:39:00;11.80;99.90
935;DHT22;454;53.254;10.400;2023-10-31T10:41:29;11.80;99.90
935;DHT22;454;53.254;10.400;2023-10-31T10:43:56;11.90;99.90
935;DHT22;454;53.254;10.400;2023-10-31T10:46:25;12.00;99.90
935;DHT22;454;53.254;10.400;2023-10-31T10:48:55;12.10;99.90
935;DHT22;454;53.254;10.400;2023-10-31T10:51:27;12.20;99.90
935;DHT22;454;53.254;10.400;2023-10-31T10:53:59;12.20;99.90
935;DHT22;454;53.254;10.400;2023-10-31T10:56:34;12.30;99.90
935;DHT22;454;53.254;10.400;2023-10-31T10:59:06;12.40;99.90
935;DHT22;454;53.254;10.400;2023-10-31T11:01:37;12.40;99.90
935;DHT22;454;53.254;10.400;2023-10-31T11:04:05;12.40;99.90
935;DHT22;454;53.254;10.400;2023-10-31T11:06:34;12.50;99.90
935;DHT22;454;53.254;10.400;2023-10-31T11:09:02;12.50;99.90
935;DHT22;454;53.254;10.400;2023-10-31T11:11:30;12.50;99.90
935;DHT22;454;53.254;10.400;2023-10-31T11:13:57;12.50;99.90
935;DHT22;454;53.254;10.400;2023-10-31T11:16:30;12.50;99.90
935;DHT22;454;53.254;10.400;2023-10-31T11:19:00;12.60;99.90
935;DHT22;454;53.254;10.400;2023-10-31T11:21:28;12.60;99.90
935;DHT22;454;53.254;10.400;2023-10-31T11:23:59;12.50;99.90
935;DHT22;454;53.254;10.400;2023-10-31T11:26:26;12.30;99.90
935;DHT22;454;53.254;10.400;2023-10-31T11:28:54;12.30;99.90
935;DHT22;454;53.254;10.400;2023-10-31T11:31:29;12.20;99.90
935;DHT22;454;53.254;10.400;2023-10-31T11:33:55;12.10;99.90
935;DHT22;454;53.254;10.400;2023-10-31T11:36:23;12.10;99.90
935;DHT22;454;53.254;10.400;2023-10-31T11:39:10;12.10;99.90
935;DHT22;454;53.254;10.400;2023-10-31T11:41:38;12.10;99.90
935;DHT22;454;53.254;10.400;2023-10-31T11:44:05;12.20;99.90
935;DHT22;454;53.254;10.400;2023-10-31T11:46:32;12.20;99.90
935;DHT22;454;53.254;10.400;2023-10-31T11:48:59;12.20;99.90
935;DHT22;454;53.254;10.400;2023-10-31T11:51:28;12.20;99.90
935;DHT22;454;53.254;10.400;2023-10-31T11:53:56;12.20;99.90
935;DHT22;454;53.254;10.400;2023-10-31T11:56:23;12.20;99.90
935;DHT22;454;53.254;10.400;2023-10-31T11:58:56;12.30;99.90
935;DHT22;454;53.254;10.400;2023-10-31T12:01:23;12.20;99.90
935;DHT22;454;53.254;10.400;2023-10-31T12:03:50;12.20;99.90
935;DHT22;454;53.254;10.400;2023-10-31T12:06:17;12.20;99.90
935;DHT22;454;53.254;10.400;2023-10-31T12:08:47;12.20;99.90
935;DHT22;454;53.254;10.400;2023-10-31T12:11:15;12.10;99.90
935;DHT22;454;53.254;10.400;2023-10-31T12:13:52;12.10;99.90
935;DHT22;454;53.254;10.400;2023-10-31T12:16:23;12.10;99.90
935;DHT22;454;53.254;10.400;2023-10-31T12:18:54;12.00;99.90
935;DHT22;454;53.254;10.400;2023-10-31T12:21:37;12.00;99.90
935;DHT22;454;53.254;10.400;2023-10-31T12:24:07;12.00;99.90
935;DHT22;454;53.254;10.400;2023-10-31T12:26:34;12.00;99.90
935;DHT22;454;53.254;10.400;2023-10-31T12:29:11;12.00;99.90
935;DHT22;454;53.254;10.400;2023-10-31T12:31:46;12.00;99.90
935;DHT22;454;53.254;10.400;2023-10-31T12:34:13;12.00;99.90
935;DHT22;454;53.254;10.400;2023-10-31T12:36:41;12.00;99.90
935;DHT22;454;53.254;10.400;2023-10-31T12:39:10;12.00;99.90
935;DHT22;454;53.254;10.400;2023-10-31T12:41:39;12.00;99.90
935;DHT22;454;53.254;10.400;2023-10-31T12:44:06;12.00;99.90
935;DHT22;454;53.254;10.400;2023-10-31T12:46:33;12.00;99.90
935;DHT22;454;53.254;10.400;2023-10-31T12:49:01;12.00;99.90
935;DHT22;454;53.254;10.400;2023-10-31T12:51:28;11.90;99.90
935;DHT22;454;53.254;10.400;2023-10-31T12:53:54;11.90;99.90
935;DHT22;454;53.254;10.400;2023-10-31T12:56:39;11.90;99.90
935;DHT22;454;53.254;10.400;2023-10-31T12:59:07;11.90;99.90
935;DHT22;454;53.254;10.400;2023-10-31T13:01:35;11.90;99.90
935;DHT22;454;53.254;10.400;2023-10-31T13:04:02;11.90;99.90
935;DHT22;454;53.254;10.400;2023-10-31T13:06:29;11.90;99.90
935;DHT22;454;53.254;10.400;2023-10-31T13:08:56;11.90;99.90
935;DHT22;454;53.254;10.400;2023-10-31T13:11:23;11.90;99.90
935;DHT22;454;53.254;10.400;2023-10-31T13:13:52;11.90;99.90
935;DHT22;454;53.254;10.400;2023-10-31T13:16:19;11.90;99.90
935;DHT22;454;53.254;10.400;2023-10-31T13:18:46;11.90;99.90
935;DHT22;454;53.254;10.400;2023-10-31T13:21:13;11.90;99.90
935;DHT22;454;53.254;10.400;2023-10-31T13:23:41;11.90;99.90
935;DHT22;454;53.254;10.400;2023-10-31T13:26:10;12.00;99.90
935;DHT22;454;53.254;10.400;2023-10-31T13:28:38;12.00;99.90
935;DHT22;454;53.254;10.400;2023-10-31T13:31:06;12.10;99.90
935;DHT22;454;53.254;10.400;2023-10-31T13:33:34;12.10;99.90
935;DHT22;454;53.254;10.400;2023-10-31T13:36:01;12.10;99.90
935;DHT22;454;53.254;10.400;2023-10-31T13:38:29;12.10;99.90
935;DHT22;454;53.254;10.400;2023-10-31T13:40:56;12.20;99.90
935;DHT22;454;53.254;10.400;2023-10-31T13:43:23;12.20;99.90
935;DHT22;454;53.254;10.400;2023-10-31T13:45:49;12.20;99.90
935;DHT22;454;53.254;10.400;2023-10-31T13:48:17;12.20;99.90
935;DHT22;454;53.254;10.400;2023-10-31T13:50:44;12.20;99.90
935;DHT22;454;53.254;10.400;2023-10-31T13:53:11;12.20;99.90
935;DHT22;454;53.254;10.400;2023-10-31T13:55:38;12.20;99.90
935;DHT22;454;53.254;10.400;2023-10-31T13:58:05;12.20;99.90
935;DHT22;454;53.254;10.400;2023-10-31T14:00:31;12.20;99.90
935;DHT22;454;53.254;10.400;2023-10-31T14:02:58;12.20;99.90
935;DHT22;454;53.254;10.400;2023-10-31T14:05:26;12.20;99.90
935;DHT22;454;53.254;10.400;2023-10-31T14:07:53;12.10;99.90
935;DHT22;454;53.254;10.400;2023-10-31T14:10:20;12.10;99.90
935;DHT22;454;53.254;10.400;2023-10-31T14:12:47;12.10;99.90
935;DHT22;454;53.254;10.400;2023-10-31T14:15:13;12.10;99.90
935;DHT22;454;53.254;10.400;2023-10-31T14:17:40;12.10;99.90
935;DHT22;454;53.254;10.400;2023-10-31T14:20:08;12.10;99.90
935;DHT22;454;53.254;10.400;2023-10-31T14:22:36;12.10;99.90
935;DHT22;454;53.254;10.400;2023-10-31T14:25:04;12.00;99.90
935;DHT22;454;53.254;10.400;2023-10-31T14:27:33;12.00;99.90
935;DHT22;454;53.254;10.400;2023-10-31T14:30:00;12.00;99.90
935;DHT22;454;53.254;10.400;2023-10-31T14:32:26;12.00;99.90
935;DHT22;454;53.254;10.400;2023-10-31T14:34:53;12.00;99.90
935;DHT22;454;53.254;10.400;2023-10-31T14:37:20;12.00;99.90
935;DHT22;454;53.254;10.400;2023-10-31T14:39:48;11.90;99.90
935;DHT22;454;53.254;10.400;2023-10-31T14:42:14;11.80;99.90
935;DHT22;454;53.254;10.400;2023-10-31T14:44:42;11.80;99.90
935;DHT22;454;53.254;10.400;2023-10-31T14:47:09;11.70;99.90
935;DHT22;454;53.254;10.400;2023-10-31T14:49:36;11.70;99.90
935;DHT22;454;53.254;10.400;2023-10-31T14:52:02;11.60;99.90
935;DHT22;454;53.254;10.400;2023-10-31T14:54:30;11.60;99.90
935;DHT22;454;53.254;10.400;2023-10-31T14:56:58;11.60;99.90
935;DHT22;454;53.254;10.400;2023-10-31T14:59:26;11.60;99.90
935;DHT22;454;53.254;10.400;2023-10-31T15:01:53;11.40;99.90
935;DHT22;454;53.254;10.400;2023-10-31T15:04:19;11.20;99.90
935;DHT22;454;53.254;10.400;2023-10-31T15:06:46;11.00;99.90
935;DHT22;454;53.254;10.400;2023-10-31T15:09:13;10.90;99.90
935;DHT22;454;53.254;10.400;2023-10-31T15:11:40;10.60;99.90
935;DHT22;454;53.254;10.400;2023-10-31T15:14:08;10.40;99.90
935;DHT22;454;53.254;10.400;2023-10-31T15:16:35;10.30;99.90
935;DHT22;454;53.254;10.400;2023-10-31T15:19:01;10.20;99.90
935;DHT22;454;53.254;10.400;2023-10-31T15:21:28;10.20;99.90
935;DHT22;454;53.254;10.400;2023-10-31T15:23:55;10.10;99.90
935;DHT22;454;53.254;10.400;2023-10-31T15:26:23;10.00;99.90
935;DHT22;454;53.254;10.400;2023-10-31T15:28:52;10.00;99.90
935;DHT22;454;53.254;10.400;2023-10-31T15:31:20;9.80;99.90
935;DHT22;454;53.254;10.400;2023-10-31T15:33:47;9.60;99.90
935;DHT22;454;53.254;10.400;2023-10-31T15:36:13;9.60;99.90
935;DHT22;454;53.254;10.400;2023-10-31T15:38:40;9.50;99.90
935;DHT22;454;53.254;10.400;2023-10-31T15:41:07;9.40;99.90
935;DHT22;454;53.254;10.400;2023-10-31T15:43:34;9.30;99.90
935;DHT22;454;53.254;10.400;2023-10-31T15:46:01;9.30;99.90
935;DHT22;454;53.254;10.400;2023-10-31T15:48:29;9.20;99.90
935;DHT22;454;53.254;10.400;2023-10-31T15:50:57;9.20;99.90
935;DHT22;454;53.254;10.400;2023-10-31T15:53:24;9.10;99.90
935;DHT22;454;53.254;10.400;2023-10-31T15:55:53;9.10;99.90
935;DHT22;454;53.254;10.400;2023-10-31T15:58:20;9.10;99.90
935;DHT22;454;53.254;10.400;2023-10-31T16:00:47;9.00;99.90
935;DHT22;454;53.254;10.400;2023-10-31T16:03:13;8.90;99.90
935;DHT22;454;53.254;10.400;2023-10-31T16:05:41;8.80;99.90
935;DHT22;454;53.254;10.400;2023-10-31T16:08:09;8.70;99.90
935;DHT22;454;53.254;10.400;2023-10-31T16:10:36;8.70;99.90
935;DHT22;454;53.254;10.400;2023-10-31T16:13:03;8.60;99.90
935;DHT22;454;53.254;10.400;2023-10-31T16:15:30;8.60;99.90
935;DHT22;454;53.254;10.400;2023-10-31T16:17:57;8.50;99.90
935;DHT22;454;53.254;10.400;2023-10-31T16:20:24;8.40;99.90
935;DHT22;454;53.254;10.400;2023-10-31T16:22:52;8.40;99.90
935;DHT22;454;53.254;10.400;2023-10-31T16:25:19;8.30;99.90
935;DHT22;454;53.254;10.400;2023-10-31T16:27:45;8.30;99.90
935;DHT22;454;53.254;10.400;2023-10-31T16:30:13;8.30;99.90
935;DHT22;454;53.254;10.400;2023-10-31T16:32:40;8.20;99.90
935;DHT22;454;53.254;10.400;2023-10-31T16:35:07;8.20;99.90
935;DHT22;454;53.254;10.400;2023-10-31T16:37:34;8.20;99.90
935;DHT22;454;53.254;10.400;2023-10-31T16:40:02;8.10;99.90
935;DHT22;454;53.254;10.400;2023-10-31T16:42:29;8.10;99.90
935;DHT22;454;53.254;10.400;2023-10-31T16:44:58;8.00;99.90
935;DHT22;454;53.254;10.400;2023-10-31T16:47:26;8.00;99.90
935;DHT22;454;53.254;10.400;2023-10-31T16:49:52;7.90;99.90
935;DHT22;454;53.254;10.400;2023-10-31T16:52:19;7.90;99.90
935;DHT22;454;53.254;10.400;2023-10-31T16:54:46;7.90;99.90
935;DHT22;454;53.254;10.400;2023-10-31T16:57:14;7.80;99.90
935;DHT22;454;53.254;10.400;2023-10-31T16:59:41;7.80;99.90
935;DHT22;454;53.254;10.400;2023-10-31T17:02:07;7.80;99.90
935;DHT22;454;53.254;10.400;2023-10-31T17:04:34;7.80;99.90
935;DHT22;454;53.254;10.400;2023-10-31T17:07:02;7.80;99.90
935;DHT22;454;53.254;10.400;2023-10-31T17:09:29;7.80;99.90
935;DHT22;454;53.254;10.400;2023-10-31T17:11:55;7.70;99.90
935;DHT22;454;53.254;10.400;2023-10-31T17:14:23;7.70;99.90
935;DHT22;454;53.254;10.400;2023-10-31T17:16:50;7.70;99.90
935;DHT22;454;53.254;10.400;2023-10-31T17:19:17;7.70;99.90
935;DHT22;454;53.254;10.400;2023-10-31T17:21:43;7.70;99.90
935;DHT22;454;53.254;10.400;2023-10-31T17:24:11;7.70;99.90
935;DHT22;454;53.254;10.400;2023-10-31T17:26:37;7.60;99.90
935;DHT22;454;53.254;10.400;2023-10-31T17:29:04;7.60;99.90
935;DHT22;454;53.254;10.400;2023-10-31T17:31:32;7.60;99.90
935;DHT22;454;53.254;10.400;2023-10-31T17:34:00;7.60;99.90
935;DHT22;454;53.254;10.400;2023-10-31T17:36:27;7.50;99.90
935;DHT22;454;53.254;10.400;2023-10-31T17:38:53;7.50;99.90
935;DHT22;454;53.254;10.400;2023-10-31T17:41:20;7.50;99.90
935;DHT22;454;53.254;10.400;2023-10-31T17:43:47;7.40;99.90
935;DHT22;454;53.254;10.400;2023-10-31T17:46:13;7.40;99.90
935;DHT22;454;53.254;10.400;2023-10-31T17:48:42;7.40;99.90
935;DHT22;454;53.254;10.400;2023-10-31T17:51:10;7.40;99.90
935;DHT22;454;53.254;10.400;2023-10-31T17:53:37;7.40;99.90
935;DHT22;454;53.254;10.400;2023-10-31T17:56:04;7.30;99.90
935;DHT22;454;53.254;10.400;2023-10-31T17:58:31;7.30;99.90
935;DHT22;454;53.254;10.400;2023-10-31T18:00:58;7.20;99.90
935;DHT22;454;53.254;10.400;2023-10-31T18:03:25;7.30;99.90
935;DHT22;454;53.254;10.400;2023-10-31T18:05:53;7.20;99.90
935;DHT22;454;53.254;10.400;2023-10-31T18:08:19;7.20;99.90
935;DHT22;454;53.254;10.400;2023-10-31T18:10:46;7.20;99.90
935;DHT22;454;53.254;10.400;2023-10-31T18:13:13;7.20;99.90
935;DHT22;454;53.254;10.400;2023-10-31T18:15:40;7.20;99.90
935;DHT22;454;53.254;10.400;2023-10-31T18:18:06;7.20;99.90
935;DHT22;454;53.254;10.400;2023-10-31T18:20:34;7.30;99.90
935;DHT22;454;53.254;10.400;2023-10-31T18:23:02;7.30;99.90
935;DHT22;454;53.254;10.400;2023-10-31T18:25:29;7.30;99.90
935;DHT22;454;53.254;10.400;2023-10-31T18:27:55;7.40;99.90
935;DHT22;454;53.254;10.400;2023-10-31T18:30:22;7.40;99.90
935;DHT22;454;53.254;10.400;2023-10-31T18:32:49;7.40;99.90
935;DHT22;454;53.254;10.400;2023-10-31T18:35:16;7.40;99.90
935;DHT22;454;53.254;10.400;2023-10-31T18:37:43;7.40;99.90
935;DHT22;454;53.254;10.400;2023-10-31T18:40:11;7.40;99.90
935;DHT22;454;53.254;10.400;2023-10-31T18:42:38;7.50;99.90
935;DHT22;454;53.254;10.400;2023-10-31T18:45:06;7.50;99.90
935;DHT22;454;53.254;10.400;2023-10-31T18:47:36;7.50;99.90
935;DHT22;454;53.254;10.400;2023-10-31T18:50:04;7.50;99.90
935;DHT22;454;53.254;10.400;2023-10-31T18:52:31;7.50;99.90
935;DHT22;454;53.254;10.400;2023-10-31T18:54:57;7.60;99.90
935;DHT22;454;53.254;10.400;2023-10-31T18:57:26;7.60;99.90
935;DHT22;454;53.254;10.400;2023-10-31T18:59:55;7.60;99.90
935;DHT22;454;53.254;10.400;2023-10-31T19:02:22;7.60;99.90
935;DHT22;454;53.254;10.400;2023-10-31T19:04:49;7.60;99.90
935;DHT22;454;53.254;10.400;2023-10-31T19:07:16;7.60;99.90
935;DHT22;454;53.254;10.400;2023-10-31T19:09:42;7.60;99.90
935;DHT22;454;53.254;10.400;2023-10-31T19:12:09;7.70;99.90
935;DHT22;454;53.254;10.400;2023-10-31T19:14:38;7.70;99.90
935;DHT22;454;53.254;10.400;2023-10-31T19:17:04;7.70;99.90
935;DHT22;454;53.254;10.400;2023-10-31T19:19:33;7.70;99.90
935;DHT22;454;53.254;10.400;2023-10-31T19:22:00;7.70;99.90
935;DHT22;454;53.254;10.400;2023-10-31T19:24:27;7.70;99.90
935;DHT22;454;53.254;10.400;2023-10-31T19:26:54;7.70;99.90
935;DHT22;454;53.254;10.400;2023-10-31T19:29:20;7.70;99.90
935;DHT22;454;53.254;10.400;2023-10-31T19:31:48;7.70;99.90
935;DHT22;454;53.254;10.400;2023-10-31T19:34:15;7.70;99.90
935;DHT22;454;53.254;10.400;2023-10-31T19:36:42;7.70;99.90
935;DHT22;454;53.254;10.400;2023-10-31T19:39:09;7.70;99.90
935;DHT22;454;53.254;10.400;2023-10-31T19:41:36;7.70;99.90
935;DHT22;454;53.254;10.400;2023-10-31T19:44:03;7.80;99.90
935;DHT22;454;53.254;10.400;2023-10-31T19:46:30;7.70;99.90
935;DHT22;454;53.254;10.400;2023-10-31T19:48:58;7.70;99.90
935;DHT22;454;53.254;10.400;2023-10-31T19:51:25;7.70;99.90
935;DHT22;454;53.254;10.400;2023-10-31T19:53:52;7.70;99.90
935;DHT22;454;53.254;10.400;2023-10-31T19:56:19;7.70;99.90
935;DHT22;454;53.254;10.400;2023-10-31T19:58:46;7.70;99.90
935;DHT22;454;53.254;10.400;2023-10-31T20:01:13;7.70;99.90
935;DHT22;454;53.254;10.400;2023-10-31T20:03:40;7.60;99.90
935;DHT22;454;53.254;10.400;2023-10-31T20:06:08;7.60;99.90
935;DHT22;454;53.254;10.400;2023-10-31T20:08:35;7.60;99.90
935;DHT22;454;53.254;10.400;2023-10-31T20:11:02;7.60;99.90
935;DHT22;454;53.254;10.400;2023-10-31T20:13:29;7.70;99.90
935;DHT22;454;53.254;10.400;2023-10-31T20:15:56;7.70;99.90
935;DHT22;454;53.254;10.400;2023-10-31T20:18:23;7.70;99.90
935;DHT22;454;53.254;10.400;2023-10-31T20:20:50;7.70;99.90
935;DHT22;454;53.254;10.400;2023-10-31T20:23:18;7.70;99.90
935;DHT22;454;53.254;10.400;2023-10-31T20:25:45;7.60;99.90
935;DHT22;454;53.254;10.400;2023-10-31T20:28:12;7.60;99.90
935;DHT22;454;53.254;10.400;2023-10-31T20:30:40;7.60;99.90
935;DHT22;454;53.254;10.400;2023-10-31T20:33:06;7.60;99.90
935;DHT22;454;53.254;10.400;2023-10-31T20:35:33;7.60;99.90
935;DHT22;454;53.254;10.400;2023-10-31T20:38:00;7.70;99.90
935;DHT22;454;53.254;10.400;2023-10-31T20:40:28;7.60;99.90
935;DHT22;454;53.254;10.400;2023-10-31T20:42:56;7.70;99.90
935;DHT22;454;53.254;10.400;2023-10-31T20:45:22;7.70;99.90
935;DHT22;454;53.254;10.400;2023-10-31T20:47:49;7.60;99.90
935;DHT22;454;53.254;10.400;2023-10-31T20:50:18;7.60;99.90
935;DHT22;454;53.254;10.400;2023-10-31T20:52:45;7.60;99.90
935;DHT22;454;53.254;10.400;2023-10-31T20:55:12;7.60;99.90
935;DHT22;454;53.254;10.400;2023-10-31T20:57:40;7.60;99.90
935;DHT22;454;53.254;10.400;2023-10-31T21:00:09;7.60;99.90
935;DHT22;454;53.254;10.400;2023-10-31T21:02:35;7.60;99.90
935;DHT22;454;53.254;10.400;2023-10-31T21:05:03;7.50;99.90
935;DHT22;454;53.254;10.400;2023-10-31T21:07:30;7.50;99.90
935;DHT22;454;53.254;10.400;2023-10-31T21:09:57;7.50;99.90
935;DHT22;454;53.254;10.400;2023-10-31T21:12:24;7.60;99.90
935;DHT22;454;53.254;10.400;2023-10-31T21:14:52;7.60;99.90
935;DHT22;454;53.254;10.400;2023-10-31T21:17:18;7.70;99.90
935;DHT22;454;53.254;10.400;2023-10-31T21:19:46;7.70;99.90
935;DHT22;454;53.254;10.400;2023-10-31T21:22:13;7.70;99.90
935;DHT22;454;53.254;10.400;2023-10-31T21:24:40;7.70;99.90
935;DHT22;454;53.254;10.400;2023-10-31T21:27:07;7.60;99.90